Solomon Sea — WDE5022 — position and weather

sailwx.info

Track history (hours):
 
Tides and Currents Weather Stations Pressure Air Temp Water Temp Dewpoint Dewpoint Depression Visibility Wind Speed Wind Dir Waves Ship Positions

Solomon Sea

Owner: Kirby Offshore Marine, LLC, Staten Island, NY. More information available from US FCC via Universal Licensing System and Coast Guard Vessel Documentation Center.

Last reported at 2018-Jul-20 02:30 UTC. Time now 2018-Jul-20 02:42 UTC.
Position N 40°39' W 074°04'.

Length 29 m; draft 3.5 m.

Type: Towing. MMSI: 367360960.

Date/timePositionNaut miles runAvg speedWind from/ knotsBaromVisibWave heightAir tempDewpointWater temp
2018-Jul-20 02:30N 40°39' W 074°04'3 5.3
2018-Jul-20 02:01N 40°41' W 074°01'3 5.3
2018-Jul-20 01:30N 40°43' W 073°59'3 5.9
2018-Jul-20 01:00N 40°45' W 073°58'0 0.0
2018-Jul-18 20:12N 40°45' W 073°57'1 5.1
2018-Jul-18 19:56N 40°44' W 073°58'2 4.7
2018-Jul-18 19:30N 40°42' W 073°59'3 6.3
2018-Jul-18 19:00N 40°40' W 074°03'3 6.4
2018-Jul-18 18:30N 40°39' W 074°06'2 3.9
2018-Jul-18 18:01N 40°39' W 074°09'2 3.5
2018-Jul-18 17:24N 40°41' W 074°08'0 0.1
2018-Jul-18 17:00N 40°41' W 074°08'0 0.0
2018-Jul-18 16:30N 40°41' W 074°08'1 1.2
2018-Jul-18 15:49N 40°42' W 074°09'1 3.1
2018-Jul-18 15:28N 40°41' W 074°08'0 0.0
2018-Jul-18 14:58N 40°41' W 074°08'0 0.8
2018-Jul-18 14:23N 40°41' W 074°08'0 0.2
2018-Jul-18 13:30N 40°41' W 074°08'1 1.5
2018-Jul-18 12:58N 40°40' W 074°08'1 0.7
2018-Jul-18 11:49N 40°41' W 074°08'2 6.6
2018-Jul-18 11:30N 40°39' W 074°09'4 4.1
2018-Jul-18 10:30N 40°41' W 074°05'0 0.0
2018-Jul-18 10:00N 40°41' W 074°05'0 0.1
2018-Jul-18 09:30N 40°41' W 074°05'2 5.0
2018-Jul-18 09:00N 40°42' W 074°02'2 0.1
2018-Jul-17 03:16N 40°45' W 074°01'2 6.4
2018-Jul-17 03:00N 40°43' W 074°01'5 9.1
2018-Jul-17 02:30N 40°39' W 074°05'3 5.7
2018-Jul-17 01:59N 40°39' W 074°09'2 3.7
2018-Jul-17 01:31N 40°41' W 074°08'0 0.4
2018-Jul-17 01:00N 40°41' W 074°09'3 6.7
2018-Jul-17 00:31N 40°39' W 074°05'2 1.8
2018-Jul-16 23:30N 40°41' W 074°03'0 0.0
2018-Jul-16 23:00N 40°41' W 074°03'0 0.0
2018-Jul-16 22:31N 40°41' W 074°03'0 0.0
2018-Jul-16 22:01N 40°41' W 074°03'0 0.0
2018-Jul-16 21:31N 40°41' W 074°03'0 0.0
2018-Jul-16 21:01N 40°41' W 074°03'0 0.0
2018-Jul-16 20:30N 40°41' W 074°03'0 0.0
2018-Jul-16 20:00N 40°41' W 074°03'0 0.0
2018-Jul-16 19:30N 40°41' W 074°03'0 0.0
2018-Jul-16 18:59N 40°41' W 074°03'0 0.0
2018-Jul-16 18:31N 40°41' W 074°03'0 0.0
2018-Jul-16 18:01N 40°41' W 074°03'0 0.0
2018-Jul-16 17:31N 40°41' W 074°03'0 0.0
2018-Jul-16 17:00N 40°41' W 074°03'0 0.0
2018-Jul-16 16:31N 40°41' W 074°03'0 0.0
2018-Jul-16 16:00N 40°41' W 074°03'0 0.0
2018-Jul-16 15:30N 40°41' W 074°03'1 1.3
2018-Jul-16 15:00N 40°41' W 074°03'3 6.6
2018-Jul-16 14:30N 40°42' W 073°59'0 0.5
2018-Jul-16 14:00N 40°42' W 073°58'0 0.0
2018-Jul-16 13:30N 40°42' W 073°58'0 0.0
2018-Jul-16 13:00N 40°42' W 073°58'4 8.1
2018-Jul-16 12:31N 40°40' W 074°03'1 2.3
2018-Jul-16 12:00N 40°40' W 074°04'0 0.0
2018-Jul-16 11:30N 40°40' W 074°04'1 1.3
2018-Jul-16 11:00N 40°39' W 074°05'3 5.9
2018-Jul-16 10:31N 40°39' W 074°09'0 0.7
2018-Jul-16 09:59N 40°39' W 074°09'1 2.9
2018-Jul-16 09:28N 40°39' W 074°07'2 5.1
2018-Jul-16 09:01N 40°39' W 074°04'0 0.9
2018-Jul-16 08:31N 40°39' W 074°04'0 0.8
2018-Jul-16 08:00N 40°40' W 074°04'0 0.0
2018-Jul-16 07:30N 40°40' W 074°04'0 0.0
2018-Jul-16 07:00N 40°40' W 074°04'0 0.0
2018-Jul-16 06:30N 40°40' W 074°04'0 0.0
2018-Jul-16 06:00N 40°40' W 074°04'0 0.0
2018-Jul-16 05:30N 40°40' W 074°04'0 0.0
2018-Jul-16 05:00N 40°40' W 074°04'0 0.0
2018-Jul-16 04:30N 40°40' W 074°04'0 0.0
2018-Jul-16 04:00N 40°40' W 074°04'1 1.2
2018-Jul-16 03:30N 40°39' W 074°05'2 3.4
2018-Jul-16 03:00N 40°41' W 074°04'1 1.1
2018-Jul-16 02:27N 40°41' W 074°05'0 0.0
2018-Jul-16 02:00N 40°41' W 074°05'0 0.0
2018-Jul-16 01:14N 40°41' W 074°05'0 0.0
2018-Jul-16 00:55N 40°41' W 074°05'0 0.0
2018-Jul-16 00:31N 40°41' W 074°05'0 0.0
2018-Jul-16 00:01N 40°41' W 074°05'0 0.0
2018-Jul-15 23:30N 40°41' W 074°05'0 0.0
2018-Jul-15 23:00N 40°41' W 074°05'0 0.0
2018-Jul-15 22:31N 40°41' W 074°05'0 0.0
2018-Jul-15 22:01N 40°41' W 074°05'0 0.2
2018-Jul-15 21:31N 40°41' W 074°05'0 0.0
2018-Jul-15 19:26N 40°41' W 074°05'0 0.0
2018-Jul-15 17:56N 40°41' W 074°05'0 0.0
2018-Jul-15 13:23N 40°41' W 074°05'0 0.0
2018-Jul-15 11:12N 40°41' W 074°05'0 0.0
2018-Jul-15 10:58N 40°41' W 074°05'0 0.0
2018-Jul-15 10:12N 40°41' W 074°05'0 0.0
2018-Jul-15 09:59N 40°41' W 074°05'0 0.0
2018-Jul-15 09:27N 40°41' W 074°05'0 0.0
2018-Jul-15 09:00N 40°41' W 074°05'0 0.0
2018-Jul-15 08:30N 40°41' W 074°05'0 0.0
2018-Jul-15 08:00N 40°41' W 074°05'0 0.0
2018-Jul-15 07:31N 40°41' W 074°05'0 0.0
2018-Jul-15 06:59N 40°41' W 074°05'0 0.0
2018-Jul-15 06:30N 40°41' W 074°05'0 0.0
2018-Jul-15 05:59N 40°41' W 074°05'0 0.0
2018-Jul-15 05:29N 40°41' W 074°05'2 4.9
2018-Jul-15 05:00N 40°39' W 074°05'5 1.0
2018-Jul-15 00:13N 40°38' W 074°12'2 8.5
2018-Jul-14 23:58N 40°39' W 074°09'2 3.7
2018-Jul-14 23:30N 40°41' W 074°08'0 0.2
2018-Jul-14 23:00N 40°41' W 074°08'0 0.8
2018-Jul-14 22:30N 40°41' W 074°08'2 4.4
2018-Jul-14 21:56N 40°39' W 074°09'3 7.2
2018-Jul-14 21:31N 40°39' W 074°05'2 4.0
2018-Jul-14 21:01N 40°41' W 074°04'0 0.3
2018-Jul-14 20:31N 40°41' W 074°05'0 0.0
2018-Jul-14 20:00N 40°41' W 074°05'0 0.0
2018-Jul-14 19:31N 40°41' W 074°05'0 0.0
2018-Jul-14 19:00N 40°41' W 074°05'0 0.0
2018-Jul-14 18:30N 40°41' W 074°05'0 0.2
2018-Jul-14 18:01N 40°41' W 074°04'1 2.4
2018-Jul-14 17:30N 40°41' W 074°03'4 7.7
2018-Jul-14 17:01N 40°43' W 073°59'2 4.0
2018-Jul-14 16:28N 40°44' W 073°57'0 0.0
2018-Jul-14 16:00N 40°44' W 073°57'1 1.1
2018-Jul-14 15:24N 40°44' W 073°58'3 6.8
2018-Jul-14 15:00N 40°42' W 073°60'3 6.8
2018-Jul-14 14:31N 40°41' W 074°04'1 0.8
2018-Jul-14 13:31N 40°41' W 074°05'0 0.1
2018-Jul-14 13:01N 40°41' W 074°05'0 0.0
2018-Jul-14 12:30N 40°41' W 074°05'0 0.0
2018-Jul-14 12:01N 40°41' W 074°05'0 0.0
2018-Jul-14 11:31N 40°41' W 074°05'0 0.0
2018-Jul-14 11:01N 40°41' W 074°05'0 0.1
2018-Jul-14 10:31N 40°41' W 074°05'0 0.0
2018-Jul-14 10:01N 40°41' W 074°05'0 0.0
2018-Jul-14 09:30N 40°41' W 074°05'0 0.0
2018-Jul-14 09:01N 40°41' W 074°05'0 0.0
2018-Jul-14 08:30N 40°41' W 074°05'0 0.0
2018-Jul-14 08:01N 40°41' W 074°05'0 0.0
2018-Jul-14 07:31N 40°41' W 074°05'0 0.0
2018-Jul-14 07:01N 40°41' W 074°05'0 0.0
2018-Jul-14 06:30N 40°41' W 074°05'0 0.0
2018-Jul-14 06:00N 40°41' W 074°05'0 0.0
2018-Jul-14 05:30N 40°41' W 074°05'0 0.0
2018-Jul-14 05:00N 40°41' W 074°05'0 0.0
2018-Jul-14 04:30N 40°41' W 074°05'0 0.0
2018-Jul-14 04:01N 40°41' W 074°05'0 0.0
2018-Jul-14 03:31N 40°41' W 074°05'0 0.0
2018-Jul-14 03:00N 40°41' W 074°05'0 0.0
2018-Jul-14 02:31N 40°41' W 074°05'0 0.0
2018-Jul-14 02:00N 40°41' W 074°05'0 0.0
2018-Jul-14 01:30N 40°41' W 074°05'0 0.0
2018-Jul-14 01:01N 40°41' W 074°05'0 0.0
2018-Jul-14 00:31N 40°41' W 074°05'0 0.0
2018-Jul-13 23:59N 40°41' W 074°05'0 0.0
2018-Jul-13 23:31N 40°41' W 074°05'0 0.0
2018-Jul-13 23:01N 40°41' W 074°05'2 3.2
2018-Jul-13 22:30N 40°40' W 074°04'6 1.5
2018-Jul-13 18:22N 40°38' W 074°12'3 7.3
2018-Jul-13 17:59N 40°39' W 074°09'1 2.8
2018-Jul-13 17:28N 40°41' W 074°08'0 0.1
2018-Jul-13 16:55N 40°41' W 074°08'1 1.8
2018-Jul-13 16:30N 40°40' W 074°08'2 4.4
2018-Jul-13 15:59N 40°42' W 074°09'0 0.0
2018-Jul-13 15:29N 40°42' W 074°09'0 0.0
2018-Jul-13 14:38N 40°42' W 074°09'0 0.0
2018-Jul-13 14:00N 40°42' W 074°09'1 0.4
2018-Jul-13 11:56N 40°41' W 074°08'1 1.5
2018-Jul-13 11:30N 40°41' W 074°09'0 0.0
2018-Jul-13 11:00N 40°41' W 074°09'0 0.0
2018-Jul-13 10:30N 40°41' W 074°09'0 0.0
2018-Jul-13 10:01N 40°41' W 074°09'0 0.0
2018-Jul-13 09:30N 40°41' W 074°09'2 3.7
2018-Jul-13 08:59N 40°39' W 074°09'4 8.2
2018-Jul-13 08:30N 40°40' W 074°04'1 2.4
2018-Jul-13 08:00N 40°41' W 074°05'2 3.4
2018-Jul-13 07:31N 40°40' W 074°03'4 8.8
2018-Jul-13 07:00N 40°45' W 074°01'510.8
2018-Jul-13 06:30N 40°50' W 073°58'3 0.1
2018-Jul-12 01:08N 40°47' W 074°00'211.4
2018-Jul-12 01:00N 40°45' W 074°01'510.9
2018-Jul-12 00:30N 40°40' W 074°03'5 9.3
2018-Jul-12 00:01N 40°39' W 074°09'3 7.0
2018-Jul-11 23:30N 40°42' W 074°09'0 0.2
2018-Jul-11 23:00N 40°42' W 074°09'0 0.0
2018-Jul-11 22:30N 40°42' W 074°09'1 1.4
2018-Jul-11 21:52N 40°41' W 074°08'3 8.0
2018-Jul-11 21:30N 40°39' W 074°09'4 8.6
2018-Jul-11 21:01N 40°40' W 074°04'1 1.8
2018-Jul-11 20:30N 40°39' W 074°04'4 1.0
2018-Jul-11 16:48N 40°39' W 074°09'3 4.9
2018-Jul-11 16:13N 40°42' W 074°09'0 0.2
2018-Jul-11 15:49N 40°42' W 074°09'0 0.0
2018-Jul-11 11:38N 40°42' W 074°09'0 0.0
2018-Jul-11 11:26N 40°42' W 074°09'0 0.0
2018-Jul-11 08:23N 40°42' W 074°09'0 0.0
2018-Jul-11 08:01N 40°42' W 074°09'0 0.0
2018-Jul-11 07:29N 40°42' W 074°09'0 0.0
2018-Jul-11 06:57N 40°42' W 074°09'0 0.0
2018-Jul-11 06:30N 40°42' W 074°09'0 0.0
2018-Jul-11 05:55N 40°42' W 074°09'0 0.0
2018-Jul-11 02:55N 40°42' W 074°09'2 3.5
2018-Jul-11 02:27N 40°42' W 074°07'3 3.2
2018-Jul-11 01:37N 40°44' W 074°05'0 1.9
2018-Jul-11 01:27N 40°44' W 074°05'0 0.1
2018-Jul-11 01:00N 40°44' W 074°05'2 4.4
2018-Jul-11 00:30N 40°43' W 074°07'2 4.9
2018-Jul-11 00:00N 40°40' W 074°08'1 1.3
2018-Jul-10 23:30N 40°40' W 074°08'2 3.4
2018-Jul-10 22:58N 40°42' W 074°08'1 1.7
2018-Jul-10 22:30N 40°42' W 074°09'0 0.0
2018-Jul-10 22:00N 40°42' W 074°09'0 0.0
2018-Jul-10 21:30N 40°42' W 074°09'2 0.4
2018-Jul-10 15:44N 40°40' W 074°08'0 0.2
2018-Jul-10 15:25N 40°40' W 074°08'6 5.0
2018-Jul-10 14:18N 40°45' W 074°05'0 0.3
2018-Jul-10 13:58N 40°45' W 074°05'1 1.3
2018-Jul-10 13:31N 40°44' W 074°05'3 5.8
2018-Jul-10 13:00N 40°42' W 074°07'2 4.0
2018-Jul-10 12:29N 40°40' W 074°08'2 3.1
2018-Jul-10 11:47N 40°42' W 074°09'1 4.1
2018-Jul-10 11:31N 40°41' W 074°08'0 0.4
2018-Jul-10 11:00N 40°41' W 074°09'0 0.0
2018-Jul-10 10:30N 40°41' W 074°09'0 0.0
2018-Jul-10 09:59N 40°41' W 074°09'0 0.4
2018-Jul-10 09:30N 40°41' W 074°09'1 2.9
2018-Jul-10 09:00N 40°39' W 074°09'2 3.3
2018-Jul-10 08:30N 40°39' W 074°07'2 4.2
2018-Jul-10 08:00N 40°39' W 074°04'1 2.0
2018-Jul-10 07:29N 40°39' W 074°05'3 5.6
2018-Jul-10 06:58N 40°39' W 074°09'1 1.3
2018-Jul-10 06:17N 40°40' W 074°08'0 0.0
2018-Jul-10 05:35N 40°40' W 074°08'0 0.0
2018-Jul-10 05:25N 40°40' W 074°08'0 0.0
2018-Jul-10 05:00N 40°40' W 074°08'0 0.0
2018-Jul-10 04:29N 40°40' W 074°08'0 0.0
2018-Jul-10 03:54N 40°40' W 074°08'0 0.0
2018-Jul-10 03:31N 40°40' W 074°08'0 0.0
2018-Jul-10 03:01N 40°40' W 074°08'  
Track history (hours):
 
Tides and Currents Weather Stations Pressure Air Temp Water Temp Dewpoint Dewpoint Depression Visibility Wind Speed Wind Dir Waves Ship Positions

Solomon Sea

Owner: Kirby Offshore Marine, LLC, Staten Island, NY. More information available from US FCC via Universal Licensing System and Coast Guard Vessel Documentation Center.

Last reported at 2018-Jul-20 02:30 UTC. Time now 2018-Jul-20 02:42 UTC.
Position N 40°39' W 074°04'.

Length 29 m; draft 3.5 m.

Type: Towing. MMSI: 367360960.

Date/timePositionNaut miles runAvg speedWind from/ knotsBaromVisibWave heightAir tempDewpointWater temp
2018-Jul-20 02:30N 40°39' W 074°04'3 5.3
2018-Jul-20 02:01N 40°41' W 074°01'3 5.3
2018-Jul-20 01:30N 40°43' W 073°59'3 5.9
2018-Jul-20 01:00N 40°45' W 073°58'0 0.0
2018-Jul-18 20:12N 40°45' W 073°57'1 5.1
2018-Jul-18 19:56N 40°44' W 073°58'2 4.7
2018-Jul-18 19:30N 40°42' W 073°59'3 6.3
2018-Jul-18 19:00N 40°40' W 074°03'3 6.4
2018-Jul-18 18:30N 40°39' W 074°06'2 3.9
2018-Jul-18 18:01N 40°39' W 074°09'2 3.5
2018-Jul-18 17:24N 40°41' W 074°08'0 0.1
2018-Jul-18 17:00N 40°41' W 074°08'0 0.0
2018-Jul-18 16:30N 40°41' W 074°08'1 1.2
2018-Jul-18 15:49N 40°42' W 074°09'1 3.1
2018-Jul-18 15:28N 40°41' W 074°08'0 0.0
2018-Jul-18 14:58N 40°41' W 074°08'0 0.8
2018-Jul-18 14:23N 40°41' W 074°08'0 0.2
2018-Jul-18 13:30N 40°41' W 074°08'1 1.5
2018-Jul-18 12:58N 40°40' W 074°08'1 0.7
2018-Jul-18 11:49N 40°41' W 074°08'2 6.6
2018-Jul-18 11:30N 40°39' W 074°09'4 4.1
2018-Jul-18 10:30N 40°41' W 074°05'0 0.0
2018-Jul-18 10:00N 40°41' W 074°05'0 0.1
2018-Jul-18 09:30N 40°41' W 074°05'2 5.0
2018-Jul-18 09:00N 40°42' W 074°02'2 0.1
2018-Jul-17 03:16N 40°45' W 074°01'2 6.4
2018-Jul-17 03:00N 40°43' W 074°01'5 9.1
2018-Jul-17 02:30N 40°39' W 074°05'3 5.7
2018-Jul-17 01:59N 40°39' W 074°09'2 3.7
2018-Jul-17 01:31N 40°41' W 074°08'0 0.4
2018-Jul-17 01:00N 40°41' W 074°09'3 6.7
2018-Jul-17 00:31N 40°39' W 074°05'2 1.8
2018-Jul-16 23:30N 40°41' W 074°03'0 0.0
2018-Jul-16 23:00N 40°41' W 074°03'0 0.0
2018-Jul-16 22:31N 40°41' W 074°03'0 0.0
2018-Jul-16 22:01N 40°41' W 074°03'0 0.0
2018-Jul-16 21:31N 40°41' W 074°03'0 0.0
2018-Jul-16 21:01N 40°41' W 074°03'0 0.0
2018-Jul-16 20:30N 40°41' W 074°03'0 0.0
2018-Jul-16 20:00N 40°41' W 074°03'0 0.0
2018-Jul-16 19:30N 40°41' W 074°03'0 0.0
2018-Jul-16 18:59N 40°41' W 074°03'0 0.0
2018-Jul-16 18:31N 40°41' W 074°03'0 0.0
2018-Jul-16 18:01N 40°41' W 074°03'0 0.0
2018-Jul-16 17:31N 40°41' W 074°03'0 0.0
2018-Jul-16 17:00N 40°41' W 074°03'0 0.0
2018-Jul-16 16:31N 40°41' W 074°03'0 0.0
2018-Jul-16 16:00N 40°41' W 074°03'0 0.0
2018-Jul-16 15:30N 40°41' W 074°03'1 1.3
2018-Jul-16 15:00N 40°41' W 074°03'3 6.6
2018-Jul-16 14:30N 40°42' W 073°59'0 0.5
2018-Jul-16 14:00N 40°42' W 073°58'0 0.0
2018-Jul-16 13:30N 40°42' W 073°58'0 0.0
2018-Jul-16 13:00N 40°42' W 073°58'4 8.1
2018-Jul-16 12:31N 40°40' W 074°03'1 2.3
2018-Jul-16 12:00N 40°40' W 074°04'0 0.0
2018-Jul-16 11:30N 40°40' W 074°04'1 1.3
2018-Jul-16 11:00N 40°39' W 074°05'3 5.9
2018-Jul-16 10:31N 40°39' W 074°09'0 0.7
2018-Jul-16 09:59N 40°39' W 074°09'1 2.9
2018-Jul-16 09:28N 40°39' W 074°07'2 5.1
2018-Jul-16 09:01N 40°39' W 074°04'0 0.9
2018-Jul-16 08:31N 40°39' W 074°04'0 0.8
2018-Jul-16 08:00N 40°40' W 074°04'0 0.0
2018-Jul-16 07:30N 40°40' W 074°04'0 0.0
2018-Jul-16 07:00N 40°40' W 074°04'0 0.0
2018-Jul-16 06:30N 40°40' W 074°04'0 0.0
2018-Jul-16 06:00N 40°40' W 074°04'0 0.0
2018-Jul-16 05:30N 40°40' W 074°04'0 0.0
2018-Jul-16 05:00N 40°40' W 074°04'0 0.0
2018-Jul-16 04:30N 40°40' W 074°04'0 0.0
2018-Jul-16 04:00N 40°40' W 074°04'1 1.2
2018-Jul-16 03:30N 40°39' W 074°05'2 3.4
2018-Jul-16 03:00N 40°41' W 074°04'1 1.1
2018-Jul-16 02:27N 40°41' W 074°05'0 0.0
2018-Jul-16 02:00N 40°41' W 074°05'0 0.0
2018-Jul-16 01:14N 40°41' W 074°05'0 0.0
2018-Jul-16 00:55N 40°41' W 074°05'0 0.0
2018-Jul-16 00:31N 40°41' W 074°05'0 0.0
2018-Jul-16 00:01N 40°41' W 074°05'0 0.0
2018-Jul-15 23:30N 40°41' W 074°05'0 0.0
2018-Jul-15 23:00N 40°41' W 074°05'0 0.0
2018-Jul-15 22:31N 40°41' W 074°05'0 0.0
2018-Jul-15 22:01N 40°41' W 074°05'0 0.2
2018-Jul-15 21:31N 40°41' W 074°05'0 0.0
2018-Jul-15 19:26N 40°41' W 074°05'0 0.0
2018-Jul-15 17:56N 40°41' W 074°05'0 0.0
2018-Jul-15 13:23N 40°41' W 074°05'0 0.0
2018-Jul-15 11:12N 40°41' W 074°05'0 0.0
2018-Jul-15 10:58N 40°41' W 074°05'0 0.0
2018-Jul-15 10:12N 40°41' W 074°05'0 0.0
2018-Jul-15 09:59N 40°41' W 074°05'0 0.0
2018-Jul-15 09:27N 40°41' W 074°05'0 0.0
2018-Jul-15 09:00N 40°41' W 074°05'0 0.0
2018-Jul-15 08:30N 40°41' W 074°05'0 0.0
2018-Jul-15 08:00N 40°41' W 074°05'0 0.0
2018-Jul-15 07:31N 40°41' W 074°05'0 0.0
2018-Jul-15 06:59N 40°41' W 074°05'0 0.0
2018-Jul-15 06:30N 40°41' W 074°05'0 0.0
2018-Jul-15 05:59N 40°41' W 074°05'0 0.0
2018-Jul-15 05:29N 40°41' W 074°05'2 4.9
2018-Jul-15 05:00N 40°39' W 074°05'5 1.0
2018-Jul-15 00:13N 40°38' W 074°12'2 8.5
2018-Jul-14 23:58N 40°39' W 074°09'2 3.7
2018-Jul-14 23:30N 40°41' W 074°08'0 0.2
2018-Jul-14 23:00N 40°41' W 074°08'0 0.8
2018-Jul-14 22:30N 40°41' W 074°08'2 4.4
2018-Jul-14 21:56N 40°39' W 074°09'3 7.2
2018-Jul-14 21:31N 40°39' W 074°05'2 4.0
2018-Jul-14 21:01N 40°41' W 074°04'0 0.3
2018-Jul-14 20:31N 40°41' W 074°05'0 0.0
2018-Jul-14 20:00N 40°41' W 074°05'0 0.0
2018-Jul-14 19:31N 40°41' W 074°05'0 0.0
2018-Jul-14 19:00N 40°41' W 074°05'0 0.0
2018-Jul-14 18:30N 40°41' W 074°05'0 0.2
2018-Jul-14 18:01N 40°41' W 074°04'1 2.4
2018-Jul-14 17:30N 40°41' W 074°03'4 7.7
2018-Jul-14 17:01N 40°43' W 073°59'2 4.0
2018-Jul-14 16:28N 40°44' W 073°57'0 0.0
2018-Jul-14 16:00N 40°44' W 073°57'1 1.1
2018-Jul-14 15:24N 40°44' W 073°58'3 6.8
2018-Jul-14 15:00N 40°42' W 073°60'3 6.8
2018-Jul-14 14:31N 40°41' W 074°04'1 0.8
2018-Jul-14 13:31N 40°41' W 074°05'0 0.1
2018-Jul-14 13:01N 40°41' W 074°05'0 0.0
2018-Jul-14 12:30N 40°41' W 074°05'0 0.0
2018-Jul-14 12:01N 40°41' W 074°05'0 0.0
2018-Jul-14 11:31N 40°41' W 074°05'0 0.0
2018-Jul-14 11:01N 40°41' W 074°05'0 0.1
2018-Jul-14 10:31N 40°41' W 074°05'0 0.0
2018-Jul-14 10:01N 40°41' W 074°05'0 0.0
2018-Jul-14 09:30N 40°41' W 074°05'0 0.0
2018-Jul-14 09:01N 40°41' W 074°05'0 0.0
2018-Jul-14 08:30N 40°41' W 074°05'0 0.0
2018-Jul-14 08:01N 40°41' W 074°05'0 0.0
2018-Jul-14 07:31N 40°41' W 074°05'0 0.0
2018-Jul-14 07:01N 40°41' W 074°05'0 0.0
2018-Jul-14 06:30N 40°41' W 074°05'0 0.0
2018-Jul-14 06:00N 40°41' W 074°05'0 0.0
2018-Jul-14 05:30N 40°41' W 074°05'0 0.0
2018-Jul-14 05:00N 40°41' W 074°05'0 0.0
2018-Jul-14 04:30N 40°41' W 074°05'0 0.0
2018-Jul-14 04:01N 40°41' W 074°05'0 0.0
2018-Jul-14 03:31N 40°41' W 074°05'0 0.0
2018-Jul-14 03:00N 40°41' W 074°05'0 0.0
2018-Jul-14 02:31N 40°41' W 074°05'0 0.0
2018-Jul-14 02:00N 40°41' W 074°05'0 0.0
2018-Jul-14 01:30N 40°41' W 074°05'0 0.0
2018-Jul-14 01:01N 40°41' W 074°05'0 0.0
2018-Jul-14 00:31N 40°41' W 074°05'0 0.0
2018-Jul-13 23:59N 40°41' W 074°05'0 0.0
2018-Jul-13 23:31N 40°41' W 074°05'0 0.0
2018-Jul-13 23:01N 40°41' W 074°05'2 3.2
2018-Jul-13 22:30N 40°40' W 074°04'6 1.5
2018-Jul-13 18:22N 40°38' W 074°12'3 7.3
2018-Jul-13 17:59N 40°39' W 074°09'1 2.8
2018-Jul-13 17:28N 40°41' W 074°08'0 0.1
2018-Jul-13 16:55N 40°41' W 074°08'1 1.8
2018-Jul-13 16:30N 40°40' W 074°08'2 4.4
2018-Jul-13 15:59N 40°42' W 074°09'0 0.0
2018-Jul-13 15:29N 40°42' W 074°09'0 0.0
2018-Jul-13 14:38N 40°42' W 074°09'0 0.0
2018-Jul-13 14:00N 40°42' W 074°09'1 0.4
2018-Jul-13 11:56N 40°41' W 074°08'1 1.5
2018-Jul-13 11:30N 40°41' W 074°09'0 0.0
2018-Jul-13 11:00N 40°41' W 074°09'0 0.0
2018-Jul-13 10:30N 40°41' W 074°09'0 0.0
2018-Jul-13 10:01N 40°41' W 074°09'0 0.0
2018-Jul-13 09:30N 40°41' W 074°09'2 3.7
2018-Jul-13 08:59N 40°39' W 074°09'4 8.2
2018-Jul-13 08:30N 40°40' W 074°04'1 2.4
2018-Jul-13 08:00N 40°41' W 074°05'2 3.4
2018-Jul-13 07:31N 40°40' W 074°03'4 8.8
2018-Jul-13 07:00N 40°45' W 074°01'510.8
2018-Jul-13 06:30N 40°50' W 073°58'3 0.1
2018-Jul-12 01:08N 40°47' W 074°00'211.4
2018-Jul-12 01:00N 40°45' W 074°01'510.9
2018-Jul-12 00:30N 40°40' W 074°03'5 9.3
2018-Jul-12 00:01N 40°39' W 074°09'3 7.0
2018-Jul-11 23:30N 40°42' W 074°09'0 0.2
2018-Jul-11 23:00N 40°42' W 074°09'0 0.0
2018-Jul-11 22:30N 40°42' W 074°09'1 1.4
2018-Jul-11 21:52N 40°41' W 074°08'3 8.0
2018-Jul-11 21:30N 40°39' W 074°09'4 8.6
2018-Jul-11 21:01N 40°40' W 074°04'1 1.8
2018-Jul-11 20:30N 40°39' W 074°04'4 1.0
2018-Jul-11 16:48N 40°39' W 074°09'3 4.9
2018-Jul-11 16:13N 40°42' W 074°09'0 0.2
2018-Jul-11 15:49N 40°42' W 074°09'0 0.0
2018-Jul-11 11:38N 40°42' W 074°09'0 0.0
2018-Jul-11 11:26N 40°42' W 074°09'0 0.0
2018-Jul-11 08:23N 40°42' W 074°09'0 0.0
2018-Jul-11 08:01N 40°42' W 074°09'0 0.0
2018-Jul-11 07:29N 40°42' W 074°09'0 0.0
2018-Jul-11 06:57N 40°42' W 074°09'0 0.0
2018-Jul-11 06:30N 40°42' W 074°09'0 0.0
2018-Jul-11 05:55N 40°42' W 074°09'0 0.0
2018-Jul-11 02:55N 40°42' W 074°09'2 3.5
2018-Jul-11 02:27N 40°42' W 074°07'3 3.2
2018-Jul-11 01:37N 40°44' W 074°05'0 1.9
2018-Jul-11 01:27N 40°44' W 074°05'0 0.1
2018-Jul-11 01:00N 40°44' W 074°05'2 4.4
2018-Jul-11 00:30N 40°43' W 074°07'2 4.9
2018-Jul-11 00:00N 40°40' W 074°08'1 1.3
2018-Jul-10 23:30N 40°40' W 074°08'2 3.4
2018-Jul-10 22:58N 40°42' W 074°08'1 1.7
2018-Jul-10 22:30N 40°42' W 074°09'0 0.0
2018-Jul-10 22:00N 40°42' W 074°09'0 0.0
2018-Jul-10 21:30N 40°42' W 074°09'2 0.4
2018-Jul-10 15:44N 40°40' W 074°08'0 0.2
2018-Jul-10 15:25N 40°40' W 074°08'6 5.0
2018-Jul-10 14:18N 40°45' W 074°05'0 0.3
2018-Jul-10 13:58N 40°45' W 074°05'1 1.3
2018-Jul-10 13:31N 40°44' W 074°05'3 5.8
2018-Jul-10 13:00N 40°42' W 074°07'2 4.0
2018-Jul-10 12:29N 40°40' W 074°08'2 3.1
2018-Jul-10 11:47N 40°42' W 074°09'1 4.1
2018-Jul-10 11:31N 40°41' W 074°08'0 0.4
2018-Jul-10 11:00N 40°41' W 074°09'0 0.0
2018-Jul-10 10:30N 40°41' W 074°09'0 0.0
2018-Jul-10 09:59N 40°41' W 074°09'0 0.4
2018-Jul-10 09:30N 40°41' W 074°09'1 2.9
2018-Jul-10 09:00N 40°39' W 074°09'2 3.3
2018-Jul-10 08:30N 40°39' W 074°07'2 4.2
2018-Jul-10 08:00N 40°39' W 074°04'1 2.0
2018-Jul-10 07:29N 40°39' W 074°05'3 5.6
2018-Jul-10 06:58N 40°39' W 074°09'1 1.3
2018-Jul-10 06:17N 40°40' W 074°08'0 0.0
2018-Jul-10 05:35N 40°40' W 074°08'0 0.0
2018-Jul-10 05:25N 40°40' W 074°08'0 0.0
2018-Jul-10 05:00N 40°40' W 074°08'0 0.0
2018-Jul-10 04:29N 40°40' W 074°08'0 0.0
2018-Jul-10 03:54N 40°40' W 074°08'0 0.0
2018-Jul-10 03:31N 40°40' W 074°08'0 0.0
2018-Jul-10 03:01N 40°40' W 074°08'  

Dump ship's entire track history